Time;durP1;ratioP1;P1;durP2;ratioP2;P2;SDS_P1;SDS_P2;PMS_P1;PMS_P2;Temp;Humidity;BMP_temperature;BMP_pressure;BME280_temperature;BME280_humidity;BME280_pressure;Samples;Min_cycle;Max_cycle;Signal;HPM_P1;HPM_P2
2021/04/04 00:00:50;;;;;;;;;;;;;;;0.73;100.00;99010.52;1743806;82;20230;-71
2021/04/04 00:03:18;;;;;;;;;;;;;;;0.61;100.00;99002.38;1743981;82;20269;-72
2021/04/04 00:05:46;;;;;;;;;;;;;;;0.57;100.00;99002.50;1744001;81;21380;-72
2021/04/04 00:08:15;;;;;;;;;;;;;;;0.62;100.00;99002.70;1743749;82;20153;-72
2021/04/04 00:10:43;;;;;;;;;;;;;;;0.61;100.00;99001.06;1743930;82;20138;-71
2021/04/04 00:13:11;;;;;;;;;;;;;;;0.62;100.00;99010.12;1743849;82;20250;-71
2021/04/04 00:15:41;;;;;;;;;;;;;;;0.58;100.00;99008.88;1743965;81;20519;-73
2021/04/04 00:18:10;;;;;;;;;;;;;;;0.49;100.00;99010.12;1743845;82;21384;-71
2021/04/04 00:20:39;;;;;;;;;;;;;;;0.45;100.00;99012.04;1743815;81;20181;-71
2021/04/04 00:23:06;;;;;;;;;;;;;;;0.41;100.00;99012.42;1743947;81;20523;-71
2021/04/04 00:25:35;;;;;;;;;;;;;;;0.31;100.00;99017.80;1743890;82;20158;-71
2021/04/04 00:28:04;;;;;;;;;;;;;;;0.17;100.00;99011.18;1743872;82;20229;-71
2021/04/04 00:30:31;;;;;;;;;;;;;;;0.16;100.00;99016.64;1743835;81;21208;-70
2021/04/04 00:33:01;;;;;;;;;;;;;;;0.16;100.00;99014.81;1743753;82;20279;-71
2021/04/04 00:35:29;;;;;;;;;;;;;;;0.17;100.00;99014.30;1743927;82;20241;-71
2021/04/04 00:37:58;;;;;;;;;;;;;;;0.16;100.00;99016.64;1743838;82;20149;-71
2021/04/04 00:40:29;;;;;;;;;;;;;;;0.09;100.00;99017.94;1743849;81;20130;-71
2021/04/04 00:42:57;;;;;;;;;;;;;;;0.04;100.00;99029.59;1743839;82;21211;-71
2021/04/04 00:45:27;;;;;;;;;;;;;;;0.10;100.00;99027.98;1743768;82;20258;-71
2021/04/04 00:47:57;;;;;;;;;;;;;;;0.10;100.00;99034.09;1743778;82;20241;-70
2021/04/04 00:50:29;;;;;;;;;;;;;;;0.13;100.00;99028.41;1743813;82;20261;-71
2021/04/04 00:52:58;;;;;;;;;;;;;;;0.21;100.00;99028.22;1743812;82;20241;-71
2021/04/04 00:55:27;;;;;;;;;;;;;;;0.28;100.00;99036.68;1743853;81;20517;-70
2021/04/04 00:57:55;;;;;;;;;;;;;;;0.30;100.00;99030.19;1743807;82;20138;-71
2021/04/04 01:00:25;;;;;;;;;;;;;;;0.32;100.00;99028.16;1745460;82;20492;-71
2021/04/04 01:02:54;;;;;;;;;;;;;;;0.32;100.00;99024.20;1746728;82;20226;-70
2021/04/04 01:05:27;;;;;;;;;;;;;;;0.31;100.00;99036.27;1746775;82;20494;-70
2021/04/04 01:07:56;;;;;;;;;;;;;;;0.28;100.00;99032.20;1746780;82;22269;-72
2021/04/04 01:10:27;;;;;;;;;;;;;;;0.23;100.00;99035.14;1746708;82;20209;-72
2021/04/04 01:13:04;;;;;;;;;;;;;;;0.19;100.00;99037.35;1746788;82;20154;-72
2021/04/04 01:15:35;;;;;;;;;;;;;;;0.20;100.00;99031.89;1746727;82;20834;-72
2021/04/04 01:18:10;;;;;;;;;;;;;;;0.13;100.00;99035.52;1746770;82;20500;-72
2021/04/04 01:20:53;;;;;;;;;;;;;;;0.08;100.00;99041.91;1746076;82;21471;-71
2021/04/04 01:23:39;;;;;;;;;;;;;;;0.04;100.00;99035.39;1745947;82;20233;-72
2021/04/04 01:26:30;;;;;;;;;;;;;;;-0.04;100.00;99042.47;1684864;85;20178;-72
2021/04/04 01:28:58;;;;;;;;;;;;;;;-0.05;100.00;99049.25;1684860;84;20277;-71
2021/04/04 01:31:26;;;;;;;;;;;;;;;-0.06;100.00;99041.84;1684848;85;20250;-71
2021/04/04 01:33:54;;;;;;;;;;;;;;;-0.07;100.00;99036.78;1662136;85;21401;-71
2021/04/04 01:36:22;;;;;;;;;;;;;;;-0.08;100.00;99042.54;1684779;85;20245;-71
2021/04/04 01:38:50;;;;;;;;;;;;;;;-0.06;100.00;99037.89;1684859;85;20254;-71
2021/04/04 01:41:27;;;;;;;;;;;;;;;-0.05;100.00;99041.33;1684890;85;20795;-72
2021/04/04 01:44:01;;;;;;;;;;;;;;;-0.01;100.00;99047.85;1684946;85;20250;-71
2021/04/04 01:46:29;;;;;;;;;;;;;;;0.02;100.00;99050.09;1684885;85;21460;-71
2021/04/04 01:48:57;;;;;;;;;;;;;;;0.10;100.00;99045.13;1684820;85;20167;-71
2021/04/04 01:51:25;;;;;;;;;;;;;;;0.18;100.00;99047.10;1684819;85;20266;-71
2021/04/04 01:53:55;;;;;;;;;;;;;;;0.32;100.00;99055.05;1684842;85;20800;-71
2021/04/04 01:56:23;;;;;;;;;;;;;;;0.41;100.00;99059.14;1684972;85;20548;-71
2021/04/04 01:58:51;;;;;;;;;;;;;;;0.50;100.00;99058.45;1684873;85;22308;-72
2021/04/04 02:01:19;;;;;;;;;;;;;;;0.58;100.00;99056.42;1683525;84;20309;-72
2021/04/04 02:03:46;;;;;;;;;;;;;;;0.68;100.00;99053.39;1729166;82;20135;-71
2021/04/04 02:06:17;;;;;;;;;;;;;;;0.78;100.00;99056.95;1746668;82;20158;-71
2021/04/04 02:08:45;;;;;;;;;;;;;;;0.87;100.00;99052.30;1746715;82;20238;-71
2021/04/04 02:11:16;;;;;;;;;;;;;;;0.90;100.00;99057.98;1746678;82;21272;-71
2021/04/04 02:13:46;;;;;;;;;;;;;;;0.93;100.00;99053.63;1746015;82;20229;-71
2021/04/04 02:16:13;;;;;;;;;;;;;;;0.98;100.00;99055.15;1719601;82;20221;-71
2021/04/04 02:18:44;;;;;;;;;;;;;;;0.98;100.00;99055.63;1746662;82;20253;-72
2021/04/04 02:21:13;;;;;;;;;;;;;;;0.95;100.00;99056.86;1746752;81;20146;-71
2021/04/04 02:23:42;;;;;;;;;;;;;;;0.90;100.00;99063.27;1746809;82;21209;-72
2021/04/04 02:26:10;;;;;;;;;;;;;;;0.87;100.00;99066.83;1746723;81;20652;-72
2021/04/04 02:28:38;;;;;;;;;;;;;;;0.79;100.00;99059.92;1746631;82;20114;-72
2021/04/04 02:31:11;;;;;;;;;;;;;;;0.72;100.00;99057.27;1746695;82;20198;-72
2021/04/04 02:33:44;;;;;;;;;;;;;;;0.66;100.00;99061.20;1746672;82;20681;-72
2021/04/04 02:36:13;;;;;;;;;;;;;;;0.60;100.00;99056.23;1746673;82;21272;-72
2021/04/04 02:38:45;;;;;;;;;;;;;;;0.52;100.00;99052.47;1746629;82;20138;-71
2021/04/04 02:41:13;;;;;;;;;;;;;;;0.44;100.00;99056.09;1746664;81;20221;-72
2021/04/04 02:43:41;;;;;;;;;;;;;;;0.37;100.00;99060.05;1746628;82;20134;-72
2021/04/04 02:46:15;;;;;;;;;;;;;;;0.33;100.00;99060.66;1745184;82;20300;-73
2021/04/04 02:48:45;;;;;;;;;;;;;;;0.28;100.00;99056.48;1746601;82;21205;-71
2021/04/04 02:51:14;;;;;;;;;;;;;;;0.18;100.00;99059.50;1746693;82;20170;-71
2021/04/04 02:53:46;;;;;;;;;;;;;;;0.08;100.00;99070.42;1746754;82;20134;-71
2021/04/04 02:56:17;;;;;;;;;;;;;;;0.00;100.00;99056.09;1746652;82;20150;-71
2021/04/04 02:58:47;;;;;;;;;;;;;;;-0.05;100.00;99059.31;1746585;82;20122;-71
2021/04/04 03:01:16;;;;;;;;;;;;;;;-0.13;100.00;99066.06;1741606;81;21811;-71
2021/04/04 03:03:45;;;;;;;;;;;;;;;-0.16;100.00;99068.30;1738686;82;20225;-71
2021/04/04 03:06:13;;;;;;;;;;;;;;;-0.21;100.00;99071.52;1738716;82;20138;-71
2021/04/04 03:08:42;;;;;;;;;;;;;;;-0.27;100.00;99070.96;1738811;82;20573;-71
2021/04/04 03:11:11;;;;;;;;;;;;;;;-0.34;100.00;99068.80;1738735;82;20532;-72
2021/04/04 03:13:40;;;;;;;;;;;;;;;-0.39;100.00;99066.77;1738877;82;21429;-71
2021/04/04 03:16:09;;;;;;;;;;;;;;;-0.43;100.00;99076.06;1738875;82;20153;-71
2021/04/04 03:18:37;;;;;;;;;;;;;;;-0.49;100.00;99078.14;1738895;82;20114;-72
2021/04/04 03:21:06;;;;;;;;;;;;;;;-0.55;100.00;99080.25;1738866;82;20262;-72
2021/04/04 03:23:34;;;;;;;;;;;;;;;-0.62;100.00;99076.24;1737427;82;20301;-72
2021/04/04 03:26:04;;;;;;;;;;;;;;;-0.63;100.00;99075.13;1738902;82;21818;-72
2021/04/04 03:28:31;;;;;;;;;;;;;;;-0.68;100.00;99078.34;1738878;82;20162;-71
2021/04/04 03:31:00;;;;;;;;;;;;;;;-0.69;100.00;99070.92;1738918;82;20262;-71
2021/04/04 03:33:28;;;;;;;;;;;;;;;-0.71;100.00;99077.39;1738851;82;20139;-71
2021/04/04 03:35:55;;;;;;;;;;;;;;;-0.70;100.00;99078.52;1738928;82;20220;-72
2021/04/04 03:38:25;;;;;;;;;;;;;;;-0.68;100.00;99080.98;1738888;82;21376;-72
2021/04/04 03:40:53;;;;;;;;;;;;;;;-0.70;100.00;99082.48;1738803;82;20143;-72
2021/04/04 03:43:24;;;;;;;;;;;;;;;-0.68;100.00;99083.62;1738894;82;20237;-72
2021/04/04 03:45:54;;;;;;;;;;;;;;;-0.74;100.00;99081.23;1738907;82;20138;-72
2021/04/04 03:48:22;;;;;;;;;;;;;;;-0.76;100.00;99080.63;1738954;82;20235;-72
2021/04/04 03:50:49;;;;;;;;;;;;;;;-0.80;100.00;99080.69;1738865;82;21375;-72
2021/04/04 03:53:21;;;;;;;;;;;;;;;-0.79;100.00;99088.89;1714138;82;20572;-72
2021/04/04 03:55:53;;;;;;;;;;;;;;;-0.83;100.00;99087.67;1738960;82;20174;-72
2021/04/04 03:58:21;;;;;;;;;;;;;;;-0.87;100.00;99077.19;1738893;82;20146;-72
2021/04/04 04:00:48;;;;;;;;;;;;;;;-0.87;100.00;99079.31;1740842;81;20527;-73
2021/04/04 04:03:16;;;;;;;;;;;;;;;-0.84;100.00;99083.39;1746772;82;22721;-72
2021/04/04 04:05:46;;;;;;;;;;;;;;;-0.84;100.00;99081.26;1746746;82;20114;-72
2021/04/04 04:08:15;;;;;;;;;;;;;;;-0.85;100.00;99085.72;1746707;82;20213;-72
2021/04/04 04:10:44;;;;;;;;;;;;;;;-0.84;100.00;99089.97;1746861;82;20694;-71
2021/04/04 04:13:15;;;;;;;;;;;;;;;-0.84;100.00;99084.70;1746813;81;20226;-72
2021/04/04 04:15:42;;;;;;;;;;;;;;;-0.81;100.00;99087.45;1746648;82;20268;-72
2021/04/04 04:18:14;;;;;;;;;;;;;;;-0.53;100.00;99091.42;1746698;82;20233;-72
2021/04/04 04:20:41;;;;;;;;;;;;;;;-0.22;100.00;99091.00;1746851;82;20496;-72
2021/04/04 04:23:09;;;;;;;;;;;;;;;0.03;100.00;99095.27;1746709;82;20280;-72
2021/04/04 04:25:40;;;;;;;;;;;;;;;0.23;100.00;99102.45;1745421;82;20253;-72
2021/04/04 04:28:09;;;;;;;;;;;;;;;0.45;100.00;99104.45;1718991;82;21288;-73
2021/04/04 04:30:37;;;;;;;;;;;;;;;0.59;100.00;99105.61;1746183;82;20218;-72
2021/04/04 04:33:07;;;;;;;;;;;;;;;0.56;100.00;99109.14;1746411;82;20233;-72
2021/04/04 04:35:37;;;;;;;;;;;;;;;0.48;100.00;99108.81;1746325;82;20229;-72
2021/04/04 04:38:05;;;;;;;;;;;;;;;0.67;100.00;99115.17;1746374;81;20213;-72
2021/04/04 04:40:34;;;;;;;;;;;;;;;0.70;100.00;99114.77;1746419;82;21213;-70
2021/04/04 04:43:06;;;;;;;;;;;;;;;0.56;100.00;99116.55;1746426;82;20229;-72
2021/04/04 04:45:37;;;;;;;;;;;;;;;0.48;100.00;99132.58;1746361;82;20257;-72
2021/04/04 04:48:07;;;;;;;;;;;;;;;0.44;100.00;99130.02;1745925;82;20284;-72
2021/04/04 04:50:36;;;;;;;;;;;;;;;0.50;100.00;99132.40;1746159;82;20229;-72
2021/04/04 04:53:04;;;;;;;;;;;;;;;0.47;100.00;99136.77;1745753;81;21811;-73
2021/04/04 04:55:33;;;;;;;;;;;;;;;0.51;100.00;99145.38;1744701;82;20221;-72
2021/04/04 04:58:03;;;;;;;;;;;;;;;0.58;100.00;99137.48;1746251;82;20225;-72
2021/04/04 05:00:31;;;;;;;;;;;;;;;0.63;100.00;99156.19;1746177;82;20142;-72
2021/04/04 05:02:59;;;;;;;;;;;;;;;0.63;100.00;99149.08;1746117;81;20245;-72
2021/04/04 05:05:28;;;;;;;;;;;;;;;0.71;100.00;99149.91;1746215;82;21197;-72
2021/04/04 05:07:57;;;;;;;;;;;;;;;0.60;100.00;99150.80;1746053;82;20757;-72
2021/04/04 05:10:26;;;;;;;;;;;;;;;0.52;100.00;99156.27;1746198;82;20169;-72
2021/04/04 05:12:58;;;;;;;;;;;;;;;0.54;100.00;99150.77;1746009;81;20347;-72
2021/04/04 05:15:26;;;;;;;;;;;;;;;0.51;100.00;99153.81;1745847;82;20244;-72
2021/04/04 05:17:57;;;;;;;;;;;;;;;0.54;100.00;99146.33;1746146;82;22138;-72
2021/04/04 05:20:27;;;;;;;;;;;;;;;0.69;100.00;99150.64;1742147;82;20225;-72
2021/04/04 05:22:57;;;;;;;;;;;;;;;0.81;100.00;99151.17;1746192;81;20150;-72
2021/04/04 05:25:25;;;;;;;;;;;;;;;0.93;100.00;99154.05;1746222;82;21007;-72
2021/04/04 05:27:58;;;;;;;;;;;;;;;0.91;100.00;99153.43;1744727;82;20524;-73
2021/04/04 05:30:26;;;;;;;;;;;;;;;0.88;100.00;99151.16;1744580;82;22261;-73
2021/04/04 05:32:54;;;;;;;;;;;;;;;0.99;100.00;99159.83;1745245;82;20246;-72
2021/04/04 05:35:25;;;;;;;;;;;;;;;0.96;100.00;99164.72;1745245;82;20320;-72
2021/04/04 05:37:53;;;;;;;;;;;;;;;1.02;100.00;99164.71;1745517;82;20313;-73
2021/04/04 05:40:43;;;;;;;;;;;;;;;1.02;100.00;99165.22;1745959;82;20523;-73
2021/04/04 05:43:14;;;;;;;;;;;;;;;1.04;100.00;99168.48;1761024;81;21201;-73
2021/04/04 05:45:46;;;;;;;;;;;;;;;1.05;100.00;99170.94;1760752;81;20291;-73
2021/04/04 05:48:46;;;;;;;;;;;;;;;1.18;100.00;99164.04;1760290;81;20737;-73
2021/04/04 05:51:33;;;;;;;;;;;;;;;1.26;100.00;99168.61;1761355;81;20267;-73
2021/04/04 05:54:22;;;;;;;;;;;;;;;1.46;100.00;99163.31;1690304;85;20229;-72
2021/04/04 05:56:56;;;;;;;;;;;;;;;1.54;100.00;99166.77;1690225;85;21830;-72
2021/04/04 05:59:39;;;;;;;;;;;;;;;1.80;100.00;99169.91;1690440;85;20262;-72
2021/04/04 06:02:31;;;;;;;;;;;;;;;1.95;100.00;99175.78;1684043;84;20316;-70
2021/04/04 06:05:05;;;;;;;;;;;;;;;1.97;100.00;99166.32;1690030;84;20943;-73
2021/04/04 06:08:06;;;;;;;;;;;;;;;2.09;100.00;99170.77;1680915;85;20289;-72
2021/04/04 06:11:06;;;;;;;;;;;;;;;2.04;100.00;99169.77;1680492;84;21384;-72
2021/04/04 06:13:48;;;;;;;;;;;;;;;2.05;100.00;99171.38;1687327;83;21430;-72
2021/04/04 06:16:59;;;;;;;;;;;;;;;2.17;100.00;99169.72;1653388;86;20334;-72
2021/04/04 06:19:45;;;;;;;;;;;;;;;2.38;100.00;99167.32;1684801;84;20584;-71
2021/04/04 06:22:26;;;;;;;;;;;;;;;2.38;100.00;99177.08;1685332;83;20321;-73
2021/04/04 06:25:08;;;;;;;;;;;;;;;2.59;100.00;99183.41;1689049;84;22155;-74
2021/04/04 06:27:39;;;;;;;;;;;;;;;2.90;100.00;99185.83;1697600;83;20336;-72
2021/04/04 06:30:21;;;;;;;;;;;;;;;2.91;100.00;99188.77;1729700;81;20232;-72
2021/04/04 06:33:01;;;;;;;;;;;;;;;2.86;100.00;99193.37;1788356;80;20273;-73
2021/04/04 06:35:38;;;;;;;;;;;;;;;2.82;100.00;99192.19;1752267;81;20220;-75
2021/04/04 06:38:17;;;;;;;;;;;;;;;2.76;100.00;99192.50;1778020;80;21439;-73
2021/04/04 06:40:48;;;;;;;;;;;;;;;2.59;100.00;99191.36;1766130;81;20655;-73
2021/04/04 06:43:44;;;;;;;;;;;;;;;2.58;100.00;99194.53;1767137;79;20295;-73
2021/04/04 06:46:34;;;;;;;;;;;;;;;2.76;100.00;99193.83;1767441;81;20295;-72
2021/04/04 06:49:21;;;;;;;;;;;;;;;2.73;100.00;99200.89;1767314;81;20487;-73
2021/04/04 06:52:01;;;;;;;;;;;;;;;2.64;100.00;99195.52;1771927;80;22258;-73
2021/04/04 06:54:53;;;;;;;;;;;;;;;2.61;100.00;99198.59;1794240;80;20233;-73
2021/04/04 06:57:52;;;;;;;;;;;;;;;2.79;100.00;99201.38;1729742;81;20254;-73
2021/04/04 07:00:42;;;;;;;;;;;;;;;2.85;100.00;99201.03;1716871;81;20925;-73
2021/04/04 07:03:12;;;;;;;;;;;;;;;3.01;100.00;99208.99;1691503;84;20245;-73
2021/04/04 07:05:43;;;;;;;;;;;;;;;2.69;100.00;99202.32;1691921;84;20590;-72
2021/04/04 07:08:26;;;;;;;;;;;;;;;2.93;100.00;99203.43;1692296;84;20422;-72
2021/04/04 07:11:14;;;;;;;;;;;;;;;3.03;100.00;99203.48;1693053;84;20192;-72
2021/04/04 07:14:19;;;;;;;;;;;;;;;3.15;100.00;99203.11;1847143;76;20187;-71
2021/04/04 07:17:07;;;;;;;;;;;;;;;3.17;100.00;99201.06;1857695;77;20134;-73
2021/04/04 07:19:49;;;;;;;;;;;;;;;3.31;100.00;99208.42;1857377;77;20134;-73
2021/04/04 07:22:59;;;;;;;;;;;;;;;3.64;100.00;99202.85;1857479;77;20507;-73
2021/04/04 07:25:47;;;;;;;;;;;;;;;3.95;100.00;99209.94;1857566;77;20115;-71
2021/04/04 07:28:45;;;;;;;;;;;;;;;4.07;100.00;99206.85;1857472;77;20584;-72
2021/04/04 07:31:14;;;;;;;;;;;;;;;4.32;100.00;99207.83;1857270;77;20146;-71
2021/04/04 07:33:49;;;;;;;;;;;;;;;4.25;100.00;99211.36;1857560;77;20995;-72
2021/04/04 07:36:43;;;;;;;;;;;;;;;4.50;100.00;99217.12;1821549;77;20173;-71
2021/04/04 07:39:30;;;;;;;;;;;;;;;4.72;100.00;99218.80;1857072;77;20138;-72
2021/04/04 07:42:19;;;;;;;;;;;;;;;4.68;100.00;99218.97;1830129;77;20293;-72
2021/04/04 07:45:37;;;;;;;;;;;;;;;5.19;100.00;99215.52;1829745;77;20279;-72
2021/04/04 07:48:10;;;;;;;;;;;;;;;5.82;100.00;99218.14;1789666;80;20133;-71
2021/04/04 07:50:47;;;;;;;;;;;;;;;5.93;100.00;99216.02;1789296;80;21610;-71
2021/04/04 07:53:22;;;;;;;;;;;;;;;6.01;100.00;99227.67;1789311;80;20111;-71
2021/04/04 07:55:53;;;;;;;;;;;;;;;5.97;100.00;99223.31;1789300;80;20194;-73
2021/04/04 07:58:38;;;;;;;;;;;;;;;6.10;100.00;99226.79;1788866;80;20251;-71
2021/04/04 08:01:18;;;;;;;;;;;;;;;6.32;100.00;99220.34;1788732;80;20135;-72
2021/04/04 08:04:01;;;;;;;;;;;;;;;6.21;100.00;99227.31;1788930;80;21357;-72
2021/04/04 08:06:32;;;;;;;;;;;;;;;6.16;100.00;99225.34;1756097;80;20222;-72
2021/04/04 08:09:04;;;;;;;;;;;;;;;6.08;100.00;99230.23;1788847;80;20250;-72
2021/04/04 08:11:45;;;;;;;;;;;;;;;5.87;100.00;99226.25;1789312;80;20135;-71
2021/04/04 08:14:44;;;;;;;;;;;;;;;5.46;100.00;99234.05;1788866;80;20333;-72
2021/04/04 08:17:16;;;;;;;;;;;;;;;4.93;100.00;99234.81;1788591;80;21183;-70
2021/04/04 08:20:09;;;;;;;;;;;;;;;4.61;100.00;99226.21;1786503;80;20596;-73
2021/04/04 08:22:41;;;;;;;;;;;;;;;4.50;100.00;99227.23;1755800;81;20654;-72
2021/04/04 08:25:14;;;;;;;;;;;;;;;4.41;100.00;99226.41;1730786;81;20331;-73
2021/04/04 08:28:00;;;;;;;;;;;;;;;4.51;100.00;99232.05;1756481;81;20328;-73
2021/04/04 08:33:21;;;;;;;;;;;;;;;4.79;100.00;99234.16;1808872;77;20225;-72
2021/04/04 08:35:52;;;;;;;;;;;;;;;4.82;100.00;99230.23;1819861;79;20232;-72
2021/04/04 08:38:33;;;;;;;;;;;;;;;5.15;100.00;99227.15;1820077;79;20565;-72
2021/04/04 08:41:04;;;;;;;;;;;;;;;5.25;100.00;99230.59;1819173;79;20172;-72
2021/04/04 08:43:33;;;;;;;;;;;;;;;5.37;100.00;99232.24;1818739;79;20176;-71
2021/04/04 08:46:03;;;;;;;;;;;;;;;5.06;100.00;99223.98;1786157;79;20276;-72
2021/04/04 08:48:31;;;;;;;;;;;;;;;5.04;100.00;99222.59;1818502;78;20566;-71
2021/04/04 08:51:00;;;;;;;;;;;;;;;5.27;100.00;99229.33;1819152;78;21199;-71
2021/04/04 08:53:31;;;;;;;;;;;;;;;5.47;100.00;99229.55;1818518;79;20180;-72
2021/04/04 08:56:03;;;;;;;;;;;;;;;5.60;100.00;99225.34;1819777;79;20279;-70
2021/04/04 08:58:50;;;;;;;;;;;;;;;5.64;100.00;99221.72;1820109;78;20133;-71
2021/04/04 09:01:38;;;;;;;;;;;;;;;5.56;100.00;99222.84;1819397;77;20220;-72
2021/04/04 09:04:08;;;;;;;;;;;;;;;5.69;100.00;99223.17;1783137;79;21348;-72
2021/04/04 09:06:44;;;;;;;;;;;;;;;6.03;100.00;99220.77;1809688;79;21350;-73
2021/04/04 09:09:23;;;;;;;;;;;;;;;6.13;100.00;99223.16;1819057;79;20558;-72
2021/04/04 09:11:56;;;;;;;;;;;;;;;5.83;100.00;99216.59;1819354;79;20207;-72
2021/04/04 09:14:36;;;;;;;;;;;;;;;5.89;100.00;99222.31;1818919;79;20268;-72
2021/04/04 09:17:12;;;;;;;;;;;;;;;5.93;100.00;99220.01;1803073;78;22266;-71
2021/04/04 09:19:43;;;;;;;;;;;;;;;5.83;100.00;99209.09;1795270;79;20308;-72
2021/04/04 09:22:21;;;;;;;;;;;;;;;5.63;100.00;99218.22;1801177;78;20741;-72
2021/04/04 09:24:55;;;;;;;;;;;;;;;5.72;100.00;99219.52;1801743;79;20420;-71
2021/04/04 09:27:35;;;;;;;;;;;;;;;5.41;100.00;99213.95;1816316;79;20311;-72
2021/04/04 09:30:04;;;;;;;;;;;;;;;5.37;100.00;99222.13;1786164;79;21377;-71
2021/04/04 09:32:39;;;;;;;;;;;;;;;5.32;100.00;99223.33;1823911;77;20314;-73
2021/04/04 09:35:15;;;;;;;;;;;;;;;5.42;100.00;99212.94;1830758;78;20660;-72
2021/04/04 09:37:48;;;;;;;;;;;;;;;5.52;100.00;99221.16;1831162;78;20283;-71
2021/04/04 09:40:19;;;;;;;;;;;;;;;5.48;100.00;99217.86;1802768;78;20220;-72
2021/04/04 09:42:48;;;;;;;;;;;;;;;5.51;100.00;99227.55;1832023;78;20219;-71
2021/04/04 09:45:25;;;;;;;;;;;;;;;5.65;100.00;99231.31;1831060;78;20136;-72
2021/04/04 09:47:55;;;;;;;;;;;;;;;5.62;100.00;99224.60;1831763;78;20255;-72
2021/04/04 09:50:28;;;;;;;;;;;;;;;5.67;100.00;99223.91;1824786;78;20311;-71
2021/04/04 09:52:57;;;;;;;;;;;;;;;5.78;100.00;99223.94;1830664;78;20176;-71
2021/04/04 09:55:27;;;;;;;;;;;;;;;5.66;100.00;99221.78;1831156;78;21368;-71
2021/04/04 09:58:00;;;;;;;;;;;;;;;5.69;100.00;99219.98;1831422;78;20227;-71
2021/04/04 10:00:48;;;;;;;;;;;;;;;5.68;100.00;99225.52;1830975;78;20249;-71
2021/04/04 10:03:18;;;;;;;;;;;;;;;5.56;100.00;99219.67;1831159;78;20259;-72
2021/04/04 10:05:46;;;;;;;;;;;;;;;5.46;100.00;99216.73;1831239;78;20156;-71
2021/04/04 10:08:20;;;;;;;;;;;;;;;5.53;100.00;99218.78;1830595;78;21197;-72
2021/04/04 10:10:50;;;;;;;;;;;;;;;5.62;100.00;99221.94;1830894;78;20251;-71
2021/04/04 10:13:24;;;;;;;;;;;;;;;5.71;100.00;99215.23;1831121;78;20582;-71
2021/04/04 10:15:52;;;;;;;;;;;;;;;5.99;100.00;99222.56;1829739;78;20203;-72
2021/04/04 10:18:20;;;;;;;;;;;;;;;6.12;100.00;99217.52;1830179;78;20212;-72
2021/04/04 10:20:54;;;;;;;;;;;;;;;6.33;100.00;99209.98;1829990;78;21322;-72
2021/04/04 10:23:30;;;;;;;;;;;;;;;6.48;100.00;99207.63;1831015;78;20280;-71
2021/04/04 10:26:01;;;;;;;;;;;;;;;7.16;100.00;99206.55;1831822;78;20124;-72
2021/04/04 10:28:47;;;;;;;;;;;;;;;7.68;100.00;99205.81;1831261;78;20108;-71
2021/04/04 10:31:15;;;;;;;;;;;;;;;8.24;100.00;99213.85;1831234;78;20148;-72
2021/04/04 10:33:44;;;;;;;;;;;;;;;7.63;97.55;99208.94;1830730;78;22100;-72
2021/04/04 10:36:18;;;;;;;;;;;;;;;6.58;100.00;99207.84;1828545;78;20306;-72
2021/04/04 10:38:45;;;;;;;;;;;;;;;6.27;100.00;99208.23;1830137;78;20219;-71
2021/04/04 10:41:32;;;;;;;;;;;;;;;5.76;100.00;99227.88;1829890;78;20597;-72
2021/04/04 10:44:00;;;;;;;;;;;;;;;5.14;100.00;99225.51;1803093;78;20275;-71
2021/04/04 10:46:29;;;;;;;;;;;;;;;4.64;100.00;99219.11;1830173;78;22117;-72
2021/04/04 10:49:01;;;;;;;;;;;;;;;4.51;100.00;99215.58;1830234;78;20283;-73
2021/04/04 10:51:29;;;;;;;;;;;;;;;4.43;100.00;99215.05;1830122;78;20282;-73
2021/04/04 10:54:00;;;;;;;;;;;;;;;4.28;100.00;99208.25;1829927;78;20342;-73
2021/04/04 10:56:30;;;;;;;;;;;;;;;4.39;100.00;99209.91;1830217;78;20302;-72
2021/04/04 10:58:59;;;;;;;;;;;;;;;4.55;100.00;99219.11;1830210;78;20916;-72
2021/04/04 11:01:32;;;;;;;;;;;;;;;4.69;100.00;99217.92;1829852;78;20609;-71
2021/04/04 11:04:01;;;;;;;;;;;;;;;4.87;100.00;99213.89;1829837;78;20298;-72
2021/04/04 11:06:30;;;;;;;;;;;;;;;5.01;100.00;99211.88;1800653;78;20221;-71
2021/04/04 11:08:59;;;;;;;;;;;;;;;5.28;100.00;99209.65;1829845;78;20219;-71
2021/04/04 11:11:27;;;;;;;;;;;;;;;5.61;100.00;99218.16;1829364;78;21810;-72
2021/04/04 11:14:00;;;;;;;;;;;;;;;5.81;100.00;99208.02;1829998;78;20223;-72
2021/04/04 11:16:29;;;;;;;;;;;;;;;5.84;100.00;99203.55;1829629;78;20300;-71
2021/04/04 11:18:59;;;;;;;;;;;;;;;5.92;100.00;99206.38;1800835;78;20287;-70
2021/04/04 11:21:31;;;;;;;;;;;;;;;5.88;100.00;99203.88;1829899;78;20302;-72
2021/04/04 11:24:00;;;;;;;;;;;;;;;6.09;100.00;99206.00;1829730;78;22211;-72
2021/04/04 11:26:32;;;;;;;;;;;;;;;6.08;100.00;99201.73;1829925;78;20650;-73
2021/04/04 11:29:11;;;;;;;;;;;;;;;6.06;100.00;99193.16;1830157;78;20197;-72
2021/04/04 11:31:40;;;;;;;;;;;;;;;6.10;100.00;99191.66;1829742;78;20263;-71
2021/04/04 11:34:28;;;;;;;;;;;;;;;5.90;100.00;99197.80;1807936;78;20511;-71
2021/04/04 11:37:19;;;;;;;;;;;;;;;5.92;100.00;99194.39;1806833;79;21142;-71
2021/04/04 11:40:15;;;;;;;;;;;;;;;6.04;100.00;99187.23;1681436;85;20293;-74
2021/04/04 11:43:25;;;;;;;;;;;;;;;6.29;100.00;99187.50;1717236;83;20517;-70
2021/04/04 11:46:00;;;;;;;;;;;;;;;6.48;99.51;99179.64;1715957;83;20350;-72
2021/04/04 11:48:31;;;;;;;;;;;;;;;6.74;99.75;99173.48;1717378;83;20299;-71
2021/04/04 11:51:15;;;;;;;;;;;;;;;7.19;97.51;99170.02;1717636;83;21354;-72
2021/04/04 11:53:44;;;;;;;;;;;;;;;7.30;94.08;99175.83;1717248;83;20250;-71
2021/04/04 11:56:47;;;;;;;;;;;;;;;7.25;91.72;99173.05;1713216;83;20318;-72
2021/04/04 11:59:14;;;;;;;;;;;;;;;8.00;96.58;99175.02;1717096;83;20349;-72
2021/04/04 12:01:44;;;;;;;;;;;;;;;8.60;94.00;99170.22;1716809;83;20314;-73
2021/04/04 12:04:31;;;;;;;;;;;;;;;7.99;92.81;99173.41;1717290;83;21226;-70
2021/04/04 12:07:07;;;;;;;;;;;;;;;7.97;100.00;99164.30;1717123;83;20314;-72
2021/04/04 12:09:46;;;;;;;;;;;;;;;8.84;96.42;99168.05;1714119;83;20326;-72
2021/04/04 12:12:16;;;;;;;;;;;;;;;8.61;86.38;99169.68;1716695;83;20649;-72
2021/04/04 12:14:58;;;;;;;;;;;;;;;8.39;92.94;99169.12;1716994;83;20318;-72
2021/04/04 12:17:31;;;;;;;;;;;;;;;7.34;91.85;99159.59;1774841;79;21347;-72
2021/04/04 12:20:00;;;;;;;;;;;;;;;6.87;96.37;99161.98;1806473;79;20292;-72
2021/04/04 12:22:41;;;;;;;;;;;;;;;6.74;100.00;99162.81;1806755;79;20232;-72
2021/04/04 12:25:23;;;;;;;;;;;;;;;6.60;100.00;99156.94;1806368;79;20527;-72
2021/04/04 12:27:52;;;;;;;;;;;;;;;6.19;100.00;99155.58;1806739;79;20231;-72
2021/04/04 12:30:38;;;;;;;;;;;;;;;5.99;100.00;99153.83;1806736;79;22119;-72
2021/04/04 12:33:21;;;;;;;;;;;;;;;5.88;100.00;99159.94;1815322;78;20271;-72
2021/04/04 12:35:51;;;;;;;;;;;;;;;5.79;100.00;99156.30;1697367;84;20288;-73
2021/04/04 12:38:28;;;;;;;;;;;;;;;5.72;100.00;99155.60;1733535;82;20569;-73
2021/04/04 12:41:02;;;;;;;;;;;;;;;5.78;100.00;99158.69;1733525;82;20398;-72
2021/04/04 12:43:32;;;;;;;;;;;;;;;5.77;100.00;99150.39;1732334;82;21638;-72
2021/04/04 12:46:01;;;;;;;;;;;;;;;5.82;100.00;99150.22;1666569;84;20308;-72
2021/04/04 12:48:30;;;;;;;;;;;;;;;5.84;100.00;99149.48;1696182;83;20302;-70
2021/04/04 12:51:02;;;;;;;;;;;;;;;5.87;100.00;99149.80;1723906;83;20282;-71
2021/04/04 12:53:31;;;;;;;;;;;;;;;5.70;100.00;99150.22;1723952;83;20554;-72
2021/04/04 12:56:01;;;;;;;;;;;;;;;5.63;100.00;99142.86;1724290;83;21139;-72
2021/04/04 12:58:32;;;;;;;;;;;;;;;5.51;100.00;99146.34;1724411;83;20645;-70
2021/04/04 13:01:02;;;;;;;;;;;;;;;5.42;100.00;99146.91;1724106;83;20271;-72
2021/04/04 13:03:31;;;;;;;;;;;;;;;5.45;100.00;99151.25;1715176;83;20199;-72
2021/04/04 13:06:00;;;;;;;;;;;;;;;5.41;100.00;99143.42;1724739;83;20278;-72
2021/04/04 13:08:32;;;;;;;;;;;;;;;5.49;100.00;99145.77;1724488;83;20803;-72
2021/04/04 13:11:04;;;;;;;;;;;;;;;5.40;100.00;99141.01;1724446;83;20195;-73
2021/04/04 13:13:36;;;;;;;;;;;;;;;5.74;100.00;99142.06;1724511;83;20286;-72
2021/04/04 13:16:07;;;;;;;;;;;;;;;5.70;100.00;99144.36;1695151;83;20311;-73
2021/04/04 13:18:41;;;;;;;;;;;;;;;5.68;100.00;99145.11;1724705;83;20251;-73
2021/04/04 13:21:31;;;;;;;;;;;;;;;5.60;100.00;99144.14;1724883;83;21197;-73
2021/04/04 13:24:17;;;;;;;;;;;;;;;5.48;100.00;99152.64;1724222;83;20307;-72